Time;durP1;ratioP1;P1;durP2;ratioP2;P2;SDS_P1;SDS_P2;PMS_P1;PMS_P2;Temp;Humidity;BMP_temperature;BMP_pressure;BME280_temperature;BME280_humidity;BME280_pressure;Samples;Min_cycle;Max_cycle;Signal;HPM_P1;HPM_P2
2022/07/02 00:01:29;;;;;;;14.40;8.20;;;;;;;20.53;86.35;100609.98;84789;1328;22577;-72
2022/07/02 00:03:38;;;;;;;9.50;8.50;;;;;;;20.60;86.61;100608.23;84812;1325;22562;-72
2022/07/02 00:05:49;;;;;;;12.00;8.70;;;;;;;20.64;86.58;100606.90;84784;1325;22600;-72
2022/07/02 00:07:56;;;;;;;11.30;8.60;;;;;;;20.63;85.98;100603.75;84830;1325;23796;-71
2022/07/02 00:10:04;;;;;;;11.80;8.50;;;;;;;20.63;86.15;100612.80;84802;1326;24225;-71
2022/07/02 00:12:13;;;;;;;10.40;7.60;;;;;;;20.62;86.47;100623.66;84819;1325;24253;-71
2022/07/02 00:14:20;;;;;;;10.60;8.20;;;;;;;20.64;86.89;100621.45;84844;1327;23930;-71
2022/07/02 00:16:28;;;;;;;10.40;8.10;;;;;;;20.69;87.31;100631.69;84810;1325;22615;-71
2022/07/02 00:18:35;;;;;;;10.00;9.00;;;;;;;20.74;87.58;100643.33;84818;1325;22594;-71
2022/07/02 00:20:43;;;;;;;12.40;8.50;;;;;;;20.77;87.48;100646.84;84823;1326;25462;-71
2022/07/02 00:22:50;;;;;;;10.70;8.50;;;;;;;20.79;87.37;100645.25;84817;1328;22657;-71
2022/07/02 00:24:58;;;;;;;8.70;7.70;;;;;;;20.77;87.23;100648.94;84806;1325;22659;-71
2022/07/02 00:27:06;;;;;;;12.20;9.20;;;;;;;20.80;87.82;100652.99;84811;1328;24249;-71
2022/07/02 00:29:17;;;;;;;11.90;9.00;;;;;;;20.81;87.44;100665.71;84763;1323;22611;-71
2022/07/02 00:31:25;;;;;;;11.70;9.40;;;;;;;20.80;87.64;100673.94;84819;1323;22533;-71
2022/07/02 00:33:33;;;;;;;9.50;8.50;;;;;;;20.79;87.61;100670.05;84834;1327;22614;-71
2022/07/02 00:35:41;;;;;;;14.40;10.00;;;;;;;20.79;88.12;100646.15;84829;1327;22726;-71
2022/07/02 00:37:49;;;;;;;11.00;9.40;;;;;;;20.82;88.63;100636.84;84843;1323;22619;-72
2022/07/02 00:39:56;;;;;;;11.80;9.40;;;;;;;20.85;88.88;100645.34;84837;1327;22960;-72
2022/07/02 00:42:04;;;;;;;9.80;8.60;;;;;;;20.89;89.03;100645.23;84889;1322;22581;-72
2022/07/02 00:44:12;;;;;;;10.40;8.80;;;;;;;20.90;88.55;100624.02;84893;1329;22545;-71
2022/07/02 00:46:20;;;;;;;8.80;8.00;;;;;;;20.89;88.43;100589.49;84830;1327;22556;-71
2022/07/02 00:48:27;;;;;;;8.60;7.80;;;;;;;20.87;88.25;100546.94;84804;1327;25309;-72
2022/07/02 00:50:35;;;;;;;9.20;8.10;;;;;;;20.83;88.30;100545.84;84790;1327;22615;-72
2022/07/02 00:52:42;;;;;;;9.00;8.20;;;;;;;20.83;88.85;100560.56;84803;1328;22584;-72
2022/07/02 00:54:49;;;;;;;11.00;7.90;;;;;;;20.81;88.66;100574.70;84795;1327;24171;-72
2022/07/02 00:56:57;;;;;;;9.90;8.60;;;;;;;20.80;88.45;100589.52;84816;1325;22596;-72
2022/07/02 00:59:06;;;;;;;10.20;7.90;;;;;;;20.77;88.75;100610.49;84795;1318;22856;-72
2022/07/02 01:01:13;;;;;;;9.30;8.40;;;;;;;20.80;89.20;100632.23;84809;1327;22579;-72
2022/07/02 01:03:21;;;;;;;10.80;9.10;;;;;;;20.82;89.33;100649.98;84806;1325;25307;-71
2022/07/02 01:05:29;;;;;;;10.20;8.60;;;;;;;20.84;89.42;100655.69;84821;1327;24491;-72
2022/07/02 01:07:36;;;;;;;10.10;9.10;;;;;;;20.86;89.78;100656.92;84780;1322;22577;-71
2022/07/02 01:12:13;;;;;;;10.20;9.20;;;;;;;20.88;89.82;100662.13;84811;1325;22789;-71
2022/07/02 01:14:20;;;;;;;11.50;10.00;;;;;;;20.90;89.99;100654.02;84809;1325;22581;-71
2022/07/02 01:16:28;;;;;;;10.50;9.40;;;;;;;20.92;89.88;100642.71;84791;1326;25317;-71
2022/07/02 01:18:36;;;;;;;10.90;9.70;;;;;;;20.90;89.87;100647.05;84805;1329;22715;-71
2022/07/02 01:20:43;;;;;;;10.10;9.20;;;;;;;20.91;90.11;100657.64;84827;1323;22648;-72
2022/07/02 01:22:51;;;;;;;12.40;10.50;;;;;;;20.93;90.45;100665.98;84870;1328;22542;-72
2022/07/02 01:24:58;;;;;;;12.20;10.90;;;;;;;20.96;90.72;100659.53;84801;1328;22552;-72
2022/07/02 01:27:07;;;;;;;13.10;10.40;;;;;;;20.99;90.81;100636.29;84791;1327;22595;-72
2022/07/02 01:29:14;;;;;;;11.30;10.20;;;;;;;21.00;90.55;100636.74;84785;1327;22593;-72
2022/07/02 01:31:23;;;;;;;12.90;11.20;;;;;;;21.01;90.58;100651.39;84780;1327;22547;-72
2022/07/02 01:33:33;;;;;;;13.90;11.40;;;;;;;21.04;91.00;100665.16;84794;1328;25445;-72
2022/07/02 01:35:40;;;;;;;13.60;12.20;;;;;;;21.07;91.27;100667.89;84782;1327;22659;-72
2022/07/02 01:37:49;;;;;;;16.30;12.90;;;;;;;21.14;91.50;100668.44;84784;1325;24235;-72
2022/07/02 01:39:56;;;;;;;13.50;12.10;;;;;;;21.16;91.18;100660.00;84805;1318;22616;-72
2022/07/02 01:42:05;;;;;;;14.00;12.60;;;;;;;21.17;91.52;100655.64;84805;1327;22556;-72
2022/07/02 01:44:12;;;;;;;15.30;13.80;;;;;;;21.22;91.38;100656.13;84812;1326;22661;-72
2022/07/02 01:46:20;;;;;;;14.10;12.70;;;;;;;21.21;91.31;100652.84;84782;1327;22651;-72
2022/07/02 01:48:28;;;;;;;14.20;12.70;;;;;;;21.22;91.23;100652.07;84780;1327;22557;-72
2022/07/02 01:50:37;;;;;;;13.90;12.60;;;;;;;21.22;91.33;100649.21;84761;1330;22591;-71
2022/07/02 01:52:45;;;;;;;15.40;13.90;;;;;;;21.23;91.63;100648.23;84784;1328;22691;-71
2022/07/02 01:54:52;;;;;;;15.00;13.50;;;;;;;21.24;91.70;100648.91;84777;1327;22737;-72
2022/07/02 01:56:59;;;;;;;13.90;12.70;;;;;;;21.25;91.82;100655.40;84772;1326;22772;-71
2022/07/02 01:59:07;;;;;;;16.20;14.70;;;;;;;21.24;91.61;100672.61;84776;1325;22546;-71
2022/07/02 02:01:14;;;;;;;15.50;13.80;;;;;;;21.24;91.45;100680.85;84795;1326;22534;-71
2022/07/02 02:03:22;;;;;;;15.70;14.20;;;;;;;21.23;91.57;100685.69;84772;1326;22659;-71
2022/07/02 02:05:30;;;;;;;15.80;14.30;;;;;;;21.24;91.65;100700.67;84787;1318;22683;-71
2022/07/02 02:07:38;;;;;;;16.20;14.40;;;;;;;21.26;91.55;100710.45;84770;1327;23369;-71
2022/07/02 02:09:45;;;;;;;14.60;13.20;;;;;;;21.27;91.81;100705.61;84788;1327;23978;-71
2022/07/02 02:11:53;;;;;;;15.00;13.40;;;;;;;21.27;91.91;100705.45;84791;1327;22593;-71
2022/07/02 02:14:00;;;;;;;14.70;13.20;;;;;;;21.28;91.95;100722.21;84790;1326;22635;-72
2022/07/02 02:16:08;;;;;;;15.30;12.40;;;;;;;21.28;91.81;100726.33;84757;1327;22577;-72
2022/07/02 02:18:16;;;;;;;16.10;14.40;;;;;;;21.28;92.12;100724.71;84787;1327;22543;-72
2022/07/02 02:20:23;;;;;;;16.10;13.90;;;;;;;21.26;92.02;100719.82;84787;1322;22586;-71
2022/07/02 02:22:31;;;;;;;14.40;12.20;;;;;;;21.26;92.12;100714.69;84795;1327;22590;-71
2022/07/02 02:24:39;;;;;;;14.20;12.70;;;;;;;21.24;91.99;100710.10;84791;1325;22610;-71
2022/07/02 02:26:46;;;;;;;14.70;13.20;;;;;;;21.23;91.97;100711.98;84797;1326;24238;-71
2022/07/02 02:28:54;;;;;;;15.00;13.20;;;;;;;21.18;91.73;100708.79;84774;1324;22588;-71
2022/07/02 02:31:02;;;;;;;14.90;13.50;;;;;;;21.15;91.77;100705.14;84793;1327;22591;-71
2022/07/02 02:33:09;;;;;;;15.50;13.30;;;;;;;21.11;91.77;100710.67;84784;1327;22660;-72
2022/07/02 02:35:17;;;;;;;15.70;14.20;;;;;;;21.08;91.61;100716.64;84773;1326;22563;-72
2022/07/02 02:37:24;;;;;;;15.50;13.90;;;;;;;21.04;91.72;100725.80;84786;1326;22600;-72
2022/07/02 02:39:32;;;;;;;16.30;14.60;;;;;;;21.02;92.28;100720.60;84800;1325;22590;-71
2022/07/02 02:41:39;;;;;;;17.30;15.60;;;;;;;21.02;92.43;100721.90;84757;1324;22751;-71
2022/07/02 02:43:47;;;;;;;15.70;13.40;;;;;;;21.02;92.65;100724.55;84605;1327;254127;-72
2022/07/02 02:45:54;;;;;;;15.40;13.70;;;;;;;21.02;92.95;100726.82;84791;1327;22594;-72
2022/07/02 02:48:01;;;;;;;15.30;13.80;;;;;;;21.03;92.85;100737.41;84775;1327;23774;-71
2022/07/02 02:50:10;;;;;;;16.40;14.60;;;;;;;21.03;92.86;100739.03;84799;1327;22725;-72
2022/07/02 02:52:18;;;;;;;17.10;14.70;;;;;;;21.04;93.32;100737.16;84781;1326;25346;-72
2022/07/02 02:54:26;;;;;;;15.70;14.10;;;;;;;21.06;93.34;100735.63;84782;1328;22545;-72
2022/07/02 02:56:33;;;;;;;16.40;14.80;;;;;;;21.07;93.26;100728.59;84795;1325;22607;-72
2022/07/02 02:58:41;;;;;;;15.90;14.40;;;;;;;21.06;93.04;100720.70;84777;1327;22615;-72
2022/07/02 03:00:48;;;;;;;16.60;14.90;;;;;;;21.04;93.09;100714.27;84772;1328;23938;-72
2022/07/02 03:02:56;;;;;;;19.00;16.20;;;;;;;21.03;93.00;100704.95;84768;1327;24258;-72
2022/07/02 03:05:04;;;;;;;18.50;14.60;;;;;;;21.05;93.42;100694.67;84779;1327;22550;-72
2022/07/02 03:07:12;;;;;;;17.70;15.70;;;;;;;21.09;93.53;100687.09;84798;1327;22567;-72
2022/07/02 03:09:20;;;;;;;17.30;15.60;;;;;;;21.11;93.31;100681.48;84774;1327;22594;-72
2022/07/02 03:11:28;;;;;;;16.70;15.00;;;;;;;21.11;93.01;100679.13;84786;1327;25407;-72
2022/07/02 03:13:36;;;;;;;17.10;15.60;;;;;;;21.10;92.87;100686.50;84775;1327;25278;-72
2022/07/02 03:15:44;;;;;;;16.30;14.60;;;;;;;21.08;92.92;100679.56;84773;1329;22794;-72
2022/07/02 03:17:51;;;;;;;16.30;14.60;;;;;;;21.08;93.49;100668.73;84766;1330;25438;-72
2022/07/02 03:19:59;;;;;;;17.40;15.80;;;;;;;21.10;93.24;100665.38;84801;1327;24235;-72
2022/07/02 03:22:07;;;;;;;17.50;14.90;;;;;;;21.11;93.48;100676.86;84762;1327;22560;-72
2022/07/02 03:24:16;;;;;;;16.50;15.00;;;;;;;21.12;93.71;100686.28;84771;1329;23929;-72
2022/07/02 03:26:23;;;;;;;17.10;15.20;;;;;;;21.15;93.92;100691.45;84791;1326;22697;-72
2022/07/02 03:28:31;;;;;;;16.70;15.00;;;;;;;21.20;94.21;100698.67;84780;1327;22902;-72
2022/07/02 03:30:38;;;;;;;18.60;15.10;;;;;;;21.25;94.01;100704.02;84782;1327;22709;-72
2022/07/02 03:32:45;;;;;;;17.20;15.40;;;;;;;21.26;93.81;100707.07;84753;1322;22601;-72
2022/07/02 03:34:53;;;;;;;17.40;15.10;;;;;;;21.25;93.69;100700.04;84785;1326;22770;-72
2022/07/02 03:37:00;;;;;;;15.60;14.10;;;;;;;21.27;93.69;100691.77;84783;1327;23960;-72
2022/07/02 03:39:08;;;;;;;17.30;13.60;;;;;;;21.28;93.53;100681.91;84789;1328;22586;-72
2022/07/02 03:41:15;;;;;;;14.90;13.40;;;;;;;21.26;93.10;100689.20;84784;1327;23954;-72
2022/07/02 03:43:23;;;;;;;15.90;12.90;;;;;;;21.23;93.13;100700.41;84771;1330;24356;-72
2022/07/02 03:45:30;;;;;;;14.00;12.60;;;;;;;21.22;92.87;100700.32;84768;1332;23987;-72
2022/07/02 03:47:38;;;;;;;16.20;13.00;;;;;;;21.20;92.80;100704.75;84775;1329;22693;-72
2022/07/02 03:49:45;;;;;;;14.00;12.00;;;;;;;21.19;92.73;100716.91;84805;1326;22607;-72
2022/07/02 03:51:53;;;;;;;13.60;12.20;;;;;;;21.19;92.76;100732.34;84760;1329;22562;-72
2022/07/02 03:54:00;;;;;;;19.60;12.60;;;;;;;21.20;92.87;100739.48;84776;1330;24197;-72
2022/07/02 03:56:08;;;;;;;15.00;12.50;;;;;;;21.21;92.95;100737.09;84765;1321;24412;-72
2022/07/02 03:58:16;;;;;;;15.00;12.30;;;;;;;21.23;92.85;100734.83;84757;1327;22614;-72
2022/07/02 04:00:23;;;;;;;17.00;12.70;;;;;;;21.24;92.74;100734.58;84770;1330;25414;-72
2022/07/02 04:02:31;;;;;;;20.30;12.80;;;;;;;21.24;92.53;100739.23;84742;1328;22594;-72
2022/07/02 04:04:38;;;;;;;12.00;10.70;;;;;;;21.24;92.64;100752.52;84786;1321;22559;-71
2022/07/02 04:06:45;;;;;;;14.20;12.00;;;;;;;21.25;92.86;100753.12;84795;1327;22577;-72
2022/07/02 04:08:53;;;;;;;12.90;11.70;;;;;;;21.27;92.71;100746.38;84763;1324;22771;-72
2022/07/02 04:11:00;;;;;;;16.20;13.30;;;;;;;21.29;92.60;100745.59;84769;1327;25438;-72
2022/07/02 04:13:10;;;;;;;13.30;11.50;;;;;;;21.31;92.55;100743.48;84775;1322;22535;-72
2022/07/02 04:15:17;;;;;;;12.60;11.40;;;;;;;21.31;92.38;100739.54;84771;1326;22756;-72
2022/07/02 04:17:25;;;;;;;13.50;12.00;;;;;;;21.33;92.63;100742.77;84784;1327;22802;-72
2022/07/02 04:19:32;;;;;;;13.80;12.50;;;;;;;21.35;92.28;100743.33;84778;1327;22578;-72
2022/07/02 04:21:40;;;;;;;13.80;12.40;;;;;;;21.36;92.23;100743.55;84756;1330;22565;-72
2022/07/02 04:23:47;;;;;;;13.60;12.40;;;;;;;21.37;92.02;100753.30;84770;1327;22752;-72
2022/07/02 04:25:55;;;;;;;15.10;13.50;;;;;;;21.38;91.92;100756.04;84787;1327;22593;-72
2022/07/02 04:28:02;;;;;;;15.80;13.10;;;;;;;21.36;91.26;100751.63;84782;1326;22553;-72
2022/07/02 04:30:12;;;;;;;16.60;13.60;;;;;;;21.34;91.19;100748.23;84791;1327;22587;-72
2022/07/02 04:32:19;;;;;;;17.70;14.00;;;;;;;21.32;90.99;100746.20;84750;1324;22584;-72
2022/07/02 04:34:27;;;;;;;17.70;13.70;;;;;;;21.31;90.98;100739.70;84785;1327;22566;-72
2022/07/02 04:36:34;;;;;;;14.90;13.40;;;;;;;21.33;91.01;100738.02;84774;1328;25346;-72
2022/07/02 04:38:42;;;;;;;21.20;14.60;;;;;;;21.35;91.00;100745.52;84771;1327;24190;-72
2022/07/02 04:40:49;;;;;;;19.90;15.30;;;;;;;21.42;91.30;100756.98;84786;1331;22596;-72
2022/07/02 04:42:57;;;;;;;19.00;15.40;;;;;;;21.50;91.37;100758.88;84786;1327;24270;-72
2022/07/02 04:45:05;;;;;;;16.50;13.60;;;;;;;21.52;90.70;100763.14;84771;1328;23982;-72
2022/07/02 04:47:13;;;;;;;18.80;14.30;;;;;;;21.55;90.69;100769.52;84750;1328;22546;-72
2022/07/02 04:49:20;;;;;;;17.70;13.30;;;;;;;21.55;90.36;100774.63;84755;1328;23253;-72
2022/07/02 04:51:28;;;;;;;22.00;14.30;;;;;;;21.51;89.57;100781.30;84773;1327;22792;-72
2022/07/02 04:53:35;;;;;;;17.90;11.80;;;;;;;21.46;89.48;100789.02;84759;1328;22596;-72
2022/07/02 04:55:43;;;;;;;16.30;10.80;;;;;;;21.45;89.69;100790.30;84784;1328;22609;-72
2022/07/02 04:57:51;;;;;;;11.70;9.90;;;;;;;21.46;89.58;100791.86;84802;1327;22601;-72
2022/07/02 04:59:58;;;;;;;14.90;9.80;;;;;;;21.48;89.51;100798.83;84775;1327;22746;-72
2022/07/02 05:02:06;;;;;;;10.30;8.70;;;;;;;21.46;88.81;100807.67;84762;1328;22578;-72
2022/07/02 05:04:14;;;;;;;12.40;9.10;;;;;;;21.43;88.96;100808.98;84782;1327;22591;-72
2022/07/02 05:06:22;;;;;;;12.10;10.00;;;;;;;21.42;88.85;100814.36;84773;1327;22822;-72
2022/07/02 05:08:29;;;;;;;9.60;8.60;;;;;;;21.41;88.67;100817.44;84760;1330;22897;-72
2022/07/02 05:10:37;;;;;;;9.50;8.40;;;;;;;21.37;87.92;100820.94;84753;1328;23853;-72
2022/07/02 05:12:44;;;;;;;14.80;8.40;;;;;;;21.33;88.14;100825.99;84763;1327;22851;-72
2022/07/02 05:14:52;;;;;;;10.90;7.40;;;;;;;21.31;88.04;100831.87;84782;1327;25311;-72
2022/07/02 05:16:59;;;;;;;11.60;7.50;;;;;;;21.28;88.05;100830.27;84760;1327;22589;-72
2022/07/02 05:19:07;;;;;;;10.30;7.00;;;;;;;21.25;87.75;100831.92;84774;1330;22607;-72
2022/07/02 05:21:14;;;;;;;9.50;7.10;;;;;;;21.21;87.57;100834.21;84783;1325;24258;-72
2022/07/02 05:23:22;;;;;;;8.50;7.50;;;;;;;21.14;87.61;100836.99;84791;1327;22589;-72
2022/07/02 05:25:29;;;;;;;9.90;7.80;;;;;;;21.13;87.72;100842.58;84761;1328;24205;-72
2022/07/02 05:27:37;;;;;;;8.60;6.90;;;;;;;21.17;88.31;100845.69;84770;1327;25432;-72
2022/07/02 05:29:44;;;;;;;8.00;7.20;;;;;;;21.27;88.86;100848.42;84794;1324;22610;-72
2022/07/02 05:31:52;;;;;;;8.90;7.30;;;;;;;21.40;89.05;100843.39;84786;1327;25258;-72
2022/07/02 05:33:59;;;;;;;7.20;6.50;;;;;;;21.54;88.69;100849.09;84796;1330;23986;-73
2022/07/02 05:36:07;;;;;;;7.40;6.70;;;;;;;21.72;88.84;100845.93;84782;1326;23851;-73
2022/07/02 05:38:14;;;;;;;9.40;7.10;;;;;;;21.93;88.80;100839.35;84782;1327;25356;-73
2022/07/02 05:40:22;;;;;;;7.40;6.20;;;;;;;22.11;88.09;100843.82;84795;1327;25438;-73
2022/07/02 05:42:29;;;;;;;9.90;6.70;;;;;;;22.20;87.68;100847.00;84801;1327;22704;-73
2022/07/02 05:44:37;;;;;;;7.40;6.70;;;;;;;22.25;86.77;100848.94;84750;1328;22607;-73
2022/07/02 05:46:44;;;;;;;11.60;7.10;;;;;;;22.22;86.15;100855.36;84774;1321;22725;-73
2022/07/02 05:48:52;;;;;;;7.80;7.20;;;;;;;22.15;85.39;100864.11;84737;1327;22566;-73
2022/07/02 05:51:00;;;;;;;8.50;6.30;;;;;;;22.03;84.85;100867.31;84761;1325;22653;-73
2022/07/02 05:53:07;;;;;;;10.80;7.60;;;;;;;21.95;84.82;100864.95;84758;1330;22784;-73
2022/07/02 05:55:15;;;;;;;8.80;6.70;;;;;;;21.84;84.59;100867.52;84753;1324;22579;-73
2022/07/02 05:57:22;;;;;;;7.30;6.70;;;;;;;21.79;85.06;100864.58;84767;1327;25486;-72
2022/07/02 05:59:30;;;;;;;8.30;7.10;;;;;;;21.74;84.88;100868.52;84770;1330;22546;-72
2022/07/02 06:01:37;;;;;;;8.40;7.70;;;;;;;21.71;84.81;100867.67;84787;1327;24248;-72
2022/07/02 06:03:45;;;;;;;8.50;7.80;;;;;;;21.72;85.07;100869.02;84756;1329;24943;-72
2022/07/02 06:08:17;;;;;;;8.40;7.60;;;;;;;21.73;84.97;100866.64;84739;1329;24214;-72
2022/07/02 06:10:26;;;;;;;9.90;7.50;;;;;;;21.70;84.81;100865.41;84759;1329;25250;-72
2022/07/02 06:12:33;;;;;;;8.50;7.50;;;;;;;21.66;84.64;100863.64;84748;1324;22669;-72
2022/07/02 06:14:41;;;;;;;8.50;7.40;;;;;;;21.61;84.44;100866.33;84758;1329;22603;-72
2022/07/02 06:16:48;;;;;;;8.80;7.80;;;;;;;21.57;84.47;100869.32;84783;1327;22755;-72
2022/07/02 06:18:56;;;;;;;9.60;7.70;;;;;;;21.54;84.53;100871.23;84736;1327;22736;-72
2022/07/02 06:21:04;;;;;;;10.40;8.00;;;;;;;21.53;84.62;100872.59;84799;1322;22613;-72
2022/07/02 06:23:12;;;;;;;11.30;7.70;;;;;;;21.50;84.77;100874.05;84746;1327;23485;-72
2022/07/02 06:25:19;;;;;;;8.40;7.60;;;;;;;21.48;84.62;100875.60;84769;1328;23822;-72
2022/07/02 06:27:27;;;;;;;11.00;7.60;;;;;;;21.47;84.81;100879.46;84735;1324;22556;-72
2022/07/02 06:29:34;;;;;;;8.90;7.50;;;;;;;21.46;84.93;100877.59;84787;1327;23938;-72
2022/07/02 06:31:41;;;;;;;8.80;6.80;;;;;;;21.45;85.16;100886.88;84786;1327;22597;-72
2022/07/02 06:33:49;;;;;;;7.10;6.50;;;;;;;21.46;85.25;100895.11;84775;1325;22675;-72
2022/07/02 06:35:56;;;;;;;9.60;6.90;;;;;;;21.47;85.20;100898.81;84803;1327;22602;-71
2022/07/02 06:38:04;;;;;;;11.20;6.80;;;;;;;21.47;85.27;100900.36;84789;1327;24384;-72
2022/07/02 06:40:13;;;;;;;10.20;6.40;;;;;;;21.49;85.57;100904.66;84784;1327;24378;-72
2022/07/02 06:42:20;;;;;;;8.20;5.50;;;;;;;21.56;86.10;100908.09;84766;1327;25471;-71
2022/07/02 06:44:27;;;;;;;6.40;5.60;;;;;;;21.64;86.35;100913.09;84785;1327;22613;-72
2022/07/02 06:46:35;;;;;;;5.70;5.10;;;;;;;21.76;86.11;100917.38;84768;1327;24219;-72
2022/07/02 06:48:42;;;;;;;5.80;5.20;;;;;;;21.87;85.80;100921.70;84783;1322;22555;-72
2022/07/02 06:50:50;;;;;;;5.20;4.80;;;;;;;21.94;85.59;100926.66;84762;1329;22648;-71
2022/07/02 06:52:57;;;;;;;6.00;5.30;;;;;;;21.99;85.43;100931.61;84778;1329;22566;-72
2022/07/02 06:55:05;;;;;;;5.80;5.20;;;;;;;22.00;84.99;100936.98;84769;1329;22802;-72
2022/07/02 06:57:13;;;;;;;6.10;5.20;;;;;;;22.03;84.73;100936.29;84784;1327;22601;-72
2022/07/02 06:59:20;;;;;;;5.40;5.00;;;;;;;22.01;84.71;100941.19;84767;1325;22580;-72
2022/07/02 07:01:28;;;;;;;5.50;5.00;;;;;;;21.99;84.47;100941.69;84755;1329;22600;-72
2022/07/02 07:03:36;;;;;;;6.00;4.60;;;;;;;21.97;84.51;100945.83;84795;1325;25443;-72
2022/07/02 07:05:46;;;;;;;6.40;4.50;;;;;;;21.91;84.28;100951.39;84791;1327;22616;-72
2022/07/02 07:07:54;;;;;;;4.40;4.00;;;;;;;21.82;84.27;100951.19;84769;1330;22589;-72
2022/07/02 07:10:01;;;;;;;6.20;3.90;;;;;;;21.72;84.41;100957.09;84768;1327;22657;-72
2022/07/02 07:12:11;;;;;;;4.20;3.90;;;;;;;21.67;84.90;100963.53;84794;1327;25445;-72
2022/07/02 07:14:18;;;;;;;11.40;4.80;;;;;;;21.63;84.88;100967.53;84766;1330;25276;-72
2022/07/02 07:16:25;;;;;;;8.40;4.40;;;;;;;21.57;85.23;100973.14;84776;1329;22595;-72
2022/07/02 07:18:33;;;;;;;4.40;4.10;;;;;;;21.54;85.21;100978.14;84748;1325;22723;-72
2022/07/02 07:20:40;;;;;;;5.80;5.00;;;;;;;21.50;85.47;100979.52;84743;1330;22543;-72
2022/07/02 07:22:48;;;;;;;6.80;6.20;;;;;;;21.44;85.52;100982.98;84756;1330;25997;-72
2022/07/02 07:24:55;;;;;;;6.40;5.80;;;;;;;21.41;86.14;100987.13;84785;1327;22700;-72
2022/07/02 07:27:03;;;;;;;6.70;6.10;;;;;;;21.38;85.99;100989.09;84788;1328;22617;-71
2022/07/02 07:29:10;;;;;;;7.50;6.70;;;;;;;21.37;86.16;100993.27;84774;1327;25511;-71
2022/07/02 07:31:20;;;;;;;8.00;7.30;;;;;;;21.37;86.18;100996.23;84758;1330;22629;-71
2022/07/02 07:33:27;;;;;;;9.00;8.20;;;;;;;21.38;86.06;100996.73;84763;1330;25283;-71
2022/07/02 07:35:35;;;;;;;9.00;8.10;;;;;;;21.38;86.79;101002.92;84773;1330;22677;-71
2022/07/02 07:37:42;;;;;;;7.80;7.20;;;;;;;21.44;87.12;101005.92;84784;1323;22542;-72
2022/07/02 07:39:49;;;;;;;8.80;8.00;;;;;;;21.47;86.91;101007.95;84786;1326;23872;-71
2022/07/02 07:41:57;;;;;;;10.70;8.50;;;;;;;21.43;86.39;101008.95;84794;1328;22572;-72
2022/07/02 07:44:05;;;;;;;9.10;8.30;;;;;;;21.37;86.21;101006.55;84782;1324;22607;-72
2022/07/02 07:46:12;;;;;;;7.90;7.30;;;;;;;21.34;86.39;101007.34;84772;1326;22553;-72
2022/07/02 07:48:19;;;;;;;7.90;7.20;;;;;;;21.35;86.62;101010.77;84802;1322;22597;-72
2022/07/02 07:50:27;;;;;;;9.90;6.80;;;;;;;21.37;86.76;101011.36;84808;1327;22592;-72
2022/07/02 07:52:35;;;;;;;8.70;7.40;;;;;;;21.38;86.69;101006.13;84768;1323;22599;-72
2022/07/02 07:54:42;;;;;;;7.10;6.50;;;;;;;21.39;86.31;101010.89;84764;1330;22609;-72
2022/07/02 07:56:50;;;;;;;7.80;6.80;;;;;;;21.38;86.34;101016.45;84784;1325;22762;-72
2022/07/02 07:58:57;;;;;;;6.90;6.30;;;;;;;21.38;86.35;101023.35;84783;1326;22610;-72
2022/07/02 08:01:05;;;;;;;6.90;6.20;;;;;;;21.40;86.40;101030.52;84806;1323;22529;-71
2022/07/02 08:03:14;;;;;;;7.50;6.10;;;;;;;21.41;86.35;101030.65;84782;1330;22559;-72
2022/07/02 08:05:22;;;;;;;6.40;5.80;;;;;;;21.39;86.07;101037.68;84790;1324;23626;-72
2022/07/02 08:07:29;;;;;;;6.90;6.30;;;;;;;21.36;85.84;101041.55;84737;1330;22681;-72
2022/07/02 08:09:36;;;;;;;6.00;5.50;;;;;;;21.34;85.77;101042.48;84808;1327;22614;-72
2022/07/02 08:11:44;;;;;;;7.30;6.20;;;;;;;21.33;85.62;101044.83;84748;1328;23915;-71
2022/07/02 08:13:51;;;;;;;6.40;5.80;;;;;;;21.31;85.47;101042.52;84755;1328;22605;-72
2022/07/02 08:16:00;;;;;;;6.50;5.90;;;;;;;21.29;85.14;101045.79;84781;1327;22557;-72
2022/07/02 08:18:08;;;;;;;7.00;6.30;;;;;;;21.30;85.02;101051.98;84754;1327;25446;-71
2022/07/02 08:20:16;;;;;;;7.50;6.50;;;;;;;21.30;85.19;101051.99;84784;1328;22541;-71
2022/07/02 08:22:24;;;;;;;7.30;6.70;;;;;;;21.30;85.02;101052.84;84776;1327;22795;-71
2022/07/02 08:24:31;;;;;;;7.80;6.70;;;;;;;21.30;85.07;101053.02;84699;1329;22684;-72
2022/07/02 08:26:39;;;;;;;6.50;6.00;;;;;;;21.30;84.80;101055.67;84795;1327;23787;-72
2022/07/02 08:28:46;;;;;;;6.60;5.90;;;;;;;21.29;84.32;101056.48;84763;1327;22562;-72
2022/07/02 08:30:54;;;;;;;7.20;6.70;;;;;;;21.26;84.42;101060.58;84754;1328;22622;-78
2022/07/02 08:33:01;;;;;;;7.60;7.00;;;;;;;21.29;84.57;101060.20;84759;1329;22546;-77
2022/07/02 08:35:10;;;;;;;7.70;6.60;;;;;;;21.30;84.21;101065.66;84796;1327;22688;-76
2022/07/02 08:37:18;;;;;;;6.80;6.30;;;;;;;21.30;84.61;101067.20;84796;1326;22606;-72
2022/07/02 08:39:25;;;;;;;6.10;5.60;;;;;;;21.32;84.40;101062.98;84777;1327;22658;-76
2022/07/02 08:41:33;;;;;;;6.80;6.20;;;;;;;21.36;84.55;101058.61;84783;1330;22572;-76
2022/07/02 08:43:41;;;;;;;10.70;7.10;;;;;;;21.38;84.52;101062.94;84797;1325;22543;-75
2022/07/02 08:45:48;;;;;;;7.90;7.20;;;;;;;21.38;84.13;101062.61;84772;1327;22609;-75
2022/07/02 08:47:56;;;;;;;7.90;7.30;;;;;;;21.41;84.36;101062.41;84772;1326;22742;-75
2022/07/02 08:50:04;;;;;;;7.80;7.10;;;;;;;21.42;84.16;101061.20;84780;1330;24128;-73
2022/07/02 08:52:12;;;;;;;7.90;7.10;;;;;;;21.43;84.03;101064.00;84766;1326;25426;-75
2022/07/02 08:54:19;;;;;;;7.90;7.10;;;;;;;21.45;83.93;101064.93;84785;1327;22627;-75
2022/07/02 08:56:27;;;;;;;7.80;7.30;;;;;;;21.43;83.43;101069.17;84797;1327;25458;-74
2022/07/02 08:58:34;;;;;;;8.00;7.00;;;;;;;21.41;83.45;101064.48;84786;1328;22676;-74
2022/07/02 09:00:42;;;;;;;7.60;7.00;;;;;;;21.41;83.35;101061.46;84795;1327;24281;-74
2022/07/02 09:02:53;;;;;;;8.70;8.00;;;;;;;21.43;83.27;101060.79;84772;1329;22678;-75
2022/07/02 09:05:00;;;;;;;8.00;7.30;;;;;;;21.48;83.25;101059.58;84774;1327;24247;-74
2022/07/02 09:07:09;;;;;;;8.30;7.60;;;;;;;21.48;83.01;101064.54;84787;1328;22614;-74
2022/07/02 09:09:16;;;;;;;8.90;8.00;;;;;;;21.48;82.97;101070.00;84746;1327;24273;-74
2022/07/02 09:11:24;;;;;;;8.30;7.60;;;;;;;21.50;82.89;101078.20;84779;1328;24104;-74
2022/07/02 09:13:31;;;;;;;7.40;6.80;;;;;;;21.51;82.68;101086.31;84763;1328;24016;-75
2022/07/02 09:15:39;;;;;;;7.10;6.50;;;;;;;21.51;82.58;101083.65;84759;1327;22591;-75
2022/07/02 09:17:47;;;;;;;6.70;6.10;;;;;;;21.50;82.34;101084.10;84782;1325;22642;-75
2022/07/02 09:19:54;;;;;;;6.10;5.50;;;;;;;21.46;82.40;101088.41;84757;1330;23816;-74
2022/07/02 09:22:01;;;;;;;6.40;5.20;;;;;;;21.48;82.52;101086.19;84776;1327;22726;-74
2022/07/02 09:24:10;;;;;;;6.20;4.50;;;;;;;21.50;82.45;101086.72;84773;1328;24254;-75
2022/07/02 09:26:24;;;;;;;4.70;4.40;;;;;;;21.54;82.46;101086.08;84791;1327;22655;-75
2022/07/02 09:28:32;;;;;;;4.30;3.80;;;;;;;21.58;82.73;101089.33;84791;1327;22566;-75
2022/07/02 09:30:39;;;;;;;4.00;3.70;;;;;;;21.62;82.29;101088.90;84753;1327;22582;-75
2022/07/02 09:32:48;;;;;;;3.30;3.10;;;;;;;21.65;82.46;101092.41;84779;1327;22668;-75
2022/07/02 09:34:56;;;;;;;2.70;2.50;;;;;;;21.67;81.85;101093.47;84773;1327;22805;-75
2022/07/02 09:37:13;;;;;;;2.20;2.10;;;;;;;21.70;81.51;101097.04;84766;1327;24473;-75
2022/07/02 09:39:30;;;;;;;2.70;2.10;;;;;;;21.72;81.52;101097.05;84795;1327;22739;-76
2022/07/02 09:41:44;;;;;;;3.20;2.10;;;;;;;21.73;81.14;101099.67;84749;1330;22613;-76
2022/07/02 09:43:58;;;;;;;4.90;2.10;;;;;;;21.70;80.84;101099.34;84779;1330;23935;-75
2022/07/02 09:46:16;;;;;;;2.10;1.90;;;;;;;21.71;81.03;101099.98;84797;1327;22594;-76
2022/07/02 09:48:23;;;;;;;1.50;1.40;;;;;;;21.72;80.97;101099.15;84800;1329;22761;-76
2022/07/02 09:50:39;;;;;;;1.90;1.60;;;;;;;21.74;81.40;101102.04;84781;1328;22630;-76
2022/07/02 09:52:54;;;;;;;1.30;1.20;;;;;;;21.84;81.40;101094.67;84770;1327;25982;-76